sensor_id;sensor_type;location;lat;lon;timestamp;pressure;altitude;pressure_sealevel;temperature;humidity
34185;BME280;20454;48.100;11.776;2023-02-05T10:18:56;97011.78;;;7.84;53.36
34185;BME280;20454;48.100;11.776;2023-02-05T10:22:00;96999.56;;;7.80;52.11
34185;BME280;20454;48.100;11.776;2023-02-05T10:27:18;96986.72;;;8.16;53.90
34185;BME280;20454;48.100;11.776;2023-02-05T10:32:27;96962.59;;;9.03;51.52
34185;BME280;20454;48.100;11.776;2023-02-05T10:35:02;96968.13;;;9.13;51.18
34185;BME280;20454;48.100;11.776;2023-02-05T10:37:45;96966.69;;;8.65;52.62
34185;BME280;20454;48.100;11.776;2023-02-05T10:40:17;96955.25;;;8.47;53.24
34185;BME280;20454;48.100;11.776;2023-02-05T10:42:54;96967.81;;;8.03;54.86
34185;BME280;20454;48.100;11.776;2023-02-05T10:45:24;96961.16;;;7.52;56.07
34185;BME280;20454;48.100;11.776;2023-02-05T10:48:02;96967.00;;;7.14;56.87
34185;BME280;20454;48.100;11.776;2023-02-05T10:50:45;96959.97;;;7.38;56.54
34185;BME280;20454;48.100;11.776;2023-02-05T10:53:18;96957.13;;;7.65;56.18
34185;BME280;20454;48.100;11.776;2023-02-05T10:55:45;96944.25;;;7.49;55.95
34185;BME280;20454;48.100;11.776;2023-02-05T11:01:37;96935.72;;;7.60;55.93
34185;BME280;20454;48.100;11.776;2023-02-05T11:06:39;96928.44;;;7.96;55.45
34185;BME280;20454;48.100;11.776;2023-02-05T11:11:54;96925.13;;;7.94;55.18
34185;BME280;20454;48.100;11.776;2023-02-05T11:14:36;96927.28;;;7.82;54.17
34185;BME280;20454;48.100;11.776;2023-02-05T11:17:25;96921.84;;;7.50;53.67
34185;BME280;20454;48.100;11.776;2023-02-05T11:20:04;96919.66;;;7.11;55.17
34185;BME280;20454;48.100;11.776;2023-02-05T11:22:34;96914.44;;;7.14;54.67
34185;BME280;20454;48.100;11.776;2023-02-05T11:25:15;96914.88;;;7.38;55.18
34185;BME280;20454;48.100;11.776;2023-02-05T11:27:57;96897.47;;;7.52;56.46
34185;BME280;20454;48.100;11.776;2023-02-05T11:30:36;96909.22;;;7.69;55.76
34185;BME280;20454;48.100;11.776;2023-02-05T11:36:02;96918.53;;;7.53;53.32
34185;BME280;20454;48.100;11.776;2023-02-05T11:38:44;96921.25;;;7.43;54.93
34185;BME280;20454;48.100;11.776;2023-02-05T11:41:13;96920.66;;;7.36;55.60
34185;BME280;20454;48.100;11.776;2023-02-05T11:43:50;96926.44;;;7.35;57.06
34185;BME280;20454;48.100;11.776;2023-02-05T11:46:19;96924.75;;;7.24;55.88
34185;BME280;20454;48.100;11.776;2023-02-05T11:48:59;96921.06;;;7.13;55.01
34185;BME280;20454;48.100;11.776;2023-02-05T11:51:42;96917.00;;;6.89;55.52
34185;BME280;20454;48.100;11.776;2023-02-05T11:54:24;96923.25;;;6.75;55.70
34185;BME280;20454;48.100;11.776;2023-02-05T11:59:53;96930.47;;;6.81;58.10
34185;BME280;20454;48.100;11.776;2023-02-05T12:18:44;96929.28;;;5.92;58.51
34185;BME280;20454;48.100;11.776;2023-02-05T12:24:38;96919.94;;;5.77;60.03
34185;BME280;20454;48.100;11.776;2023-02-05T12:35:04;96908.47;;;5.63;63.38
34185;BME280;20454;48.100;11.776;2023-02-05T12:37:45;96909.56;;;5.62;63.44
34185;BME280;20454;48.100;11.776;2023-02-05T12:40:35;96898.44;;;5.57;61.93
34185;BME280;20454;48.100;11.776;2023-02-05T12:43:31;96905.13;;;5.61;61.34
34185;BME280;20454;48.100;11.776;2023-02-05T12:54:29;96896.03;;;5.39;64.87
34185;BME280;20454;48.100;11.776;2023-02-05T12:57:03;96897.84;;;5.34;65.50
34185;BME280;20454;48.100;11.776;2023-02-05T13:02:40;96892.97;;;5.19;65.76
34185;BME280;20454;48.100;11.776;2023-02-05T13:08:11;96886.72;;;5.07;67.09
34185;BME280;20454;48.100;11.776;2023-02-05T13:10:58;96885.88;;;5.07;65.80
34185;BME280;20454;48.100;11.776;2023-02-05T13:13:38;96885.63;;;5.08;67.32
34185;BME280;20454;48.100;11.776;2023-02-05T13:16:11;96889.50;;;5.07;67.91
34185;BME280;20454;48.100;11.776;2023-02-05T13:18:56;96889.41;;;5.02;68.32
34185;BME280;20454;48.100;11.776;2023-02-05T13:21:24;96889.00;;;4.94;68.92
34185;BME280;20454;48.100;11.776;2023-02-05T13:24:37;96894.19;;;4.90;69.76
34185;BME280;20454;48.100;11.776;2023-02-05T13:27:30;96887.53;;;4.86;69.28
34185;BME280;20454;48.100;11.776;2023-02-05T13:30:23;96895.47;;;4.83;69.39
34185;BME280;20454;48.100;11.776;2023-02-05T13:32:54;96895.03;;;4.74;70.01
34185;BME280;20454;48.100;11.776;2023-02-05T13:35:23;96888.88;;;4.67;69.92
34185;BME280;20454;48.100;11.776;2023-02-05T13:38:24;96887.13;;;4.61;70.41
34185;BME280;20454;48.100;11.776;2023-02-05T13:44:38;96898.47;;;4.48;71.83
34185;BME280;20454;48.100;11.776;2023-02-05T13:55:35;96899.22;;;4.28;74.63
34185;BME280;20454;48.100;11.776;2023-02-05T13:58:16;96891.94;;;4.22;76.19
34185;BME280;20454;48.100;11.776;2023-02-05T14:01:06;96881.59;;;4.12;75.91
34185;BME280;20454;48.100;11.776;2023-02-05T14:03:57;96889.00;;;4.12;76.10
34185;BME280;20454;48.100;11.776;2023-02-05T14:06:33;96885.00;;;4.03;77.52
34185;BME280;20454;48.100;11.776;2023-02-05T14:09:10;96888.84;;;4.02;77.79
34185;BME280;20454;48.100;11.776;2023-02-05T14:11:51;96897.00;;;3.97;78.85
34185;BME280;20454;48.100;11.776;2023-02-05T14:14:20;96896.06;;;3.91;79.29
34185;BME280;20454;48.100;11.776;2023-02-05T14:16:46;96895.13;;;3.86;80.71
34185;BME280;20454;48.100;11.776;2023-02-05T14:27:03;96902.28;;;3.59;84.37
34185;BME280;20454;48.100;11.776;2023-02-05T14:32:09;96901.97;;;3.44;86.25
34185;BME280;20454;48.100;11.776;2023-02-05T14:37:01;96898.69;;;3.30;88.00
34185;BME280;20454;48.100;11.776;2023-02-05T14:39:32;96895.81;;;3.25;89.35
34185;BME280;20454;48.100;11.776;2023-02-05T14:41:59;96892.13;;;3.20;90.02
34185;BME280;20454;48.100;11.776;2023-02-05T14:44:27;96902.88;;;3.21;91.62
34185;BME280;20454;48.100;11.776;2023-02-05T14:51:57;96893.69;;;3.16;92.41
34185;BME280;20454;48.100;11.776;2023-02-05T14:54:49;96901.09;;;3.15;93.21
34185;BME280;20454;48.100;11.776;2023-02-05T14:57:22;96900.13;;;3.10;93.38
34185;BME280;20454;48.100;11.776;2023-02-05T14:59:57;96894.56;;;3.05;93.94
34185;BME280;20454;48.100;11.776;2023-02-05T15:10:36;96877.25;;;2.81;96.23
34185;BME280;20454;48.100;11.776;2023-02-05T15:13:15;96880.22;;;2.80;96.85
34185;BME280;20454;48.100;11.776;2023-02-05T15:15:41;96886.91;;;2.72;97.00
34185;BME280;20454;48.100;11.776;2023-02-05T15:18:28;96888.59;;;2.73;96.73
34185;BME280;20454;48.100;11.776;2023-02-05T15:20:54;96888.84;;;2.72;97.50
34185;BME280;20454;48.100;11.776;2023-02-05T15:26:07;96889.78;;;2.66;98.63
34185;BME280;20454;48.100;11.776;2023-02-05T15:28:41;96889.31;;;2.57;99.88
34185;BME280;20454;48.100;11.776;2023-02-05T15:31:47;96897.31;;;2.59;99.65
34185;BME280;20454;48.100;11.776;2023-02-05T15:39:54;96904.25;;;2.50;100.00
34185;BME280;20454;48.100;11.776;2023-02-05T15:42:38;96909.13;;;2.48;100.00
34185;BME280;20454;48.100;11.776;2023-02-05T15:45:27;96909.38;;;2.46;100.00
34185;BME280;20454;48.100;11.776;2023-02-05T15:50:53;96911.13;;;2.41;100.00
34185;BME280;20454;48.100;11.776;2023-02-05T15:53:47;96922.84;;;2.36;100.00
34185;BME280;20454;48.100;11.776;2023-02-05T15:59:02;96914.00;;;2.23;100.00
34185;BME280;20454;48.100;11.776;2023-02-05T16:01:42;96910.53;;;2.27;100.00
34185;BME280;20454;48.100;11.776;2023-02-05T16:04:29;96918.84;;;2.21;100.00
34185;BME280;20454;48.100;11.776;2023-02-05T16:06:56;96911.09;;;2.18;100.00
34185;BME280;20454;48.100;11.776;2023-02-05T16:09:24;96927.56;;;2.18;100.00
34185;BME280;20454;48.100;11.776;2023-02-05T16:11:50;96916.47;;;2.13;100.00
34185;BME280;20454;48.100;11.776;2023-02-05T16:14:18;96919.09;;;2.08;100.00
34185;BME280;20454;48.100;11.776;2023-02-05T16:16:59;96926.63;;;2.12;100.00
34185;BME280;20454;48.100;11.776;2023-02-05T16:24:45;96931.38;;;2.05;100.00
34185;BME280;20454;48.100;11.776;2023-02-05T16:27:35;96934.13;;;2.05;100.00
34185;BME280;20454;48.100;11.776;2023-02-05T16:30:05;96928.72;;;1.99;100.00
34185;BME280;20454;48.100;11.776;2023-02-05T16:32:39;96926.66;;;1.94;100.00
34185;BME280;20454;48.100;11.776;2023-02-05T16:35:35;96939.47;;;2.00;100.00
34185;BME280;20454;48.100;11.776;2023-02-05T16:38:03;96936.13;;;1.98;100.00
34185;BME280;20454;48.100;11.776;2023-02-05T16:40:37;96930.38;;;2.00;100.00
34185;BME280;20454;48.100;11.776;2023-02-05T16:48:35;96921.41;;;1.93;100.00
34185;BME280;20454;48.100;11.776;2023-02-05T16:51:02;96921.19;;;1.94;100.00
34185;BME280;20454;48.100;11.776;2023-02-05T16:53:29;96926.31;;;1.91;100.00
34185;BME280;20454;48.100;11.776;2023-02-05T16:56:20;96936.81;;;1.94;100.00
34185;BME280;20454;48.100;11.776;2023-02-05T16:58:48;96926.31;;;1.91;100.00
34185;BME280;20454;48.100;11.776;2023-02-05T17:01:26;96924.03;;;1.88;100.00
34185;BME280;20454;48.100;11.776;2023-02-05T17:03:53;96918.41;;;1.83;100.00
34185;BME280;20454;48.100;11.776;2023-02-05T17:06:19;96932.50;;;1.86;100.00
34185;BME280;20454;48.100;11.776;2023-02-05T17:08:53;96927.13;;;1.80;100.00
34185;BME280;20454;48.100;11.776;2023-02-05T17:11:40;96931.53;;;1.81;100.00
34185;BME280;20454;48.100;11.776;2023-02-05T17:14:25;96936.75;;;1.82;100.00
34185;BME280;20454;48.100;11.776;2023-02-05T17:16:58;96941.44;;;1.82;100.00
34185;BME280;20454;48.100;11.776;2023-02-05T17:19:31;96925.28;;;1.74;100.00
34185;BME280;20454;48.100;11.776;2023-02-05T17:24:48;96933.66;;;1.79;100.00
34185;BME280;20454;48.100;11.776;2023-02-05T17:27:23;96930.09;;;1.78;100.00
34185;BME280;20454;48.100;11.776;2023-02-05T17:29:52;96926.13;;;1.74;100.00
34185;BME280;20454;48.100;11.776;2023-02-05T17:32:18;96927.41;;;1.72;100.00
34185;BME280;20454;48.100;11.776;2023-02-05T17:34:45;96920.47;;;1.69;100.00
34185;BME280;20454;48.100;11.776;2023-02-05T17:37:12;96931.59;;;1.74;100.00
34185;BME280;20454;48.100;11.776;2023-02-05T17:39:38;96925.75;;;1.71;100.00
34185;BME280;20454;48.100;11.776;2023-02-05T17:42:04;96915.94;;;1.63;100.00
34185;BME280;20454;48.100;11.776;2023-02-05T17:44:35;96924.94;;;1.70;100.00
34185;BME280;20454;48.100;11.776;2023-02-05T17:47:02;96926.81;;;1.70;100.00
34185;BME280;20454;48.100;11.776;2023-02-05T17:49:28;96922.84;;;1.66;100.00
34185;BME280;20454;48.100;11.776;2023-02-05T17:51:54;96932.09;;;1.71;100.00
34185;BME280;20454;48.100;11.776;2023-02-05T17:54:22;96928.97;;;1.68;100.00
34185;BME280;20454;48.100;11.776;2023-02-05T17:56:50;96933.97;;;1.71;100.00
34185;BME280;20454;48.100;11.776;2023-02-05T17:59:19;96931.72;;;1.68;100.00
34185;BME280;20454;48.100;11.776;2023-02-05T18:01:45;96922.38;;;1.57;100.00
34185;BME280;20454;48.100;11.776;2023-02-05T18:04:11;96936.34;;;1.67;100.00
34185;BME280;20454;48.100;11.776;2023-02-05T19:37:19;96978.28;;;1.02;100.00
34185;BME280;20454;48.100;11.776;2023-02-05T19:39:45;96981.81;;;1.03;100.00
34185;BME280;20454;48.100;11.776;2023-02-05T19:42:11;96979.94;;;1.03;100.00
34185;BME280;20454;48.100;11.776;2023-02-05T19:44:36;96974.25;;;1.05;100.00
34185;BME280;20454;48.100;11.776;2023-02-05T19:47:02;96980.53;;;1.05;100.00
34185;BME280;20454;48.100;11.776;2023-02-05T19:49:28;96979.25;;;1.08;100.00
34185;BME280;20454;48.100;11.776;2023-02-05T19:51:54;96977.13;;;1.10;100.00
34185;BME280;20454;48.100;11.776;2023-02-05T19:54:21;96975.81;;;1.12;100.00
34185;BME280;20454;48.100;11.776;2023-02-05T19:56:46;96972.88;;;1.14;100.00
34185;BME280;20454;48.100;11.776;2023-02-05T19:59:12;96966.53;;;1.13;100.00
34185;BME280;20454;48.100;11.776;2023-02-05T20:01:40;96964.06;;;1.12;100.00
34185;BME280;20454;48.100;11.776;2023-02-05T20:04:20;96967.31;;;1.20;100.00
34185;BME280;20454;48.100;11.776;2023-02-05T20:06:47;96970.41;;;1.24;100.00
34185;BME280;20454;48.100;11.776;2023-02-05T20:09:14;96966.66;;;1.25;100.00
34185;BME280;20454;48.100;11.776;2023-02-05T20:11:42;96978.81;;;1.29;100.00
34185;BME280;20454;48.100;11.776;2023-02-05T20:14:09;96977.50;;;1.31;100.00
34185;BME280;20454;48.100;11.776;2023-02-05T20:16:37;96967.25;;;1.27;100.00
34185;BME280;20454;48.100;11.776;2023-02-05T20:19:08;96978.81;;;1.29;100.00
34185;BME280;20454;48.100;11.776;2023-02-05T20:21:34;96986.97;;;1.35;100.00
34185;BME280;20454;48.100;11.776;2023-02-05T20:24:00;96996.63;;;1.38;100.00
34185;BME280;20454;48.100;11.776;2023-02-05T20:26:26;96996.63;;;1.38;100.00
34185;BME280;20454;48.100;11.776;2023-02-05T20:28:54;97003.31;;;1.42;100.00
34185;BME280;20454;48.100;11.776;2023-02-05T20:31:40;96992.84;;;1.39;100.00
34185;BME280;20454;48.100;11.776;2023-02-05T20:34:12;96986.28;;;1.40;100.00
34185;BME280;20454;48.100;11.776;2023-02-05T20:36:47;96991.28;;;1.43;100.00
34185;BME280;20454;48.100;11.776;2023-02-05T20:39:14;96998.22;;;1.45;100.00
34185;BME280;20454;48.100;11.776;2023-02-05T20:41:42;96991.06;;;1.44;100.00
34185;BME280;20454;48.100;11.776;2023-02-05T20:44:07;96996.78;;;1.43;100.00
34185;BME280;20454;48.100;11.776;2023-02-05T20:46:33;96996.19;;;1.41;100.00
34185;BME280;20454;48.100;11.776;2023-02-05T20:48:59;97005.00;;;1.43;100.00
34185;BME280;20454;48.100;11.776;2023-02-05T20:51:25;97008.91;;;1.35;100.00
34185;BME280;20454;48.100;11.776;2023-02-05T20:53:54;97020.84;;;1.41;100.00
34185;BME280;20454;48.100;11.776;2023-02-05T20:56:22;97017.72;;;1.37;100.00
34185;BME280;20454;48.100;11.776;2023-02-05T20:58:47;97033.47;;;1.42;100.00
34185;BME280;20454;48.100;11.776;2023-02-05T21:01:16;97022.81;;;1.34;100.00
34185;BME280;20454;48.100;11.776;2023-02-05T21:03:45;97040.84;;;1.41;100.00
34185;BME280;20454;48.100;11.776;2023-02-05T21:06:11;97036.91;;;1.37;100.00
34185;BME280;20454;48.100;11.776;2023-02-05T21:08:38;97044.44;;;1.42;100.00
34185;BME280;20454;48.100;11.776;2023-02-05T21:11:05;97050.16;;;1.40;100.00
34185;BME280;20454;48.100;11.776;2023-02-05T21:13:31;97054.56;;;1.41;100.00
34185;BME280;20454;48.100;11.776;2023-02-05T21:15:58;97058.16;;;1.42;100.00
34185;BME280;20454;48.100;11.776;2023-02-05T21:18:25;97057.31;;;1.41;100.00
34185;BME280;20454;48.100;11.776;2023-02-05T21:20:51;97056.47;;;1.41;100.00
34185;BME280;20454;48.100;11.776;2023-02-05T21:23:18;97072.34;;;1.39;100.00
34185;BME280;20454;48.100;11.776;2023-02-05T21:25:44;97078.84;;;1.38;100.00
34185;BME280;20454;48.100;11.776;2023-02-05T21:28:10;97080.59;;;1.32;100.00
34185;BME280;20454;48.100;11.776;2023-02-05T21:30:37;97089.22;;;1.36;100.00
34185;BME280;20454;48.100;11.776;2023-02-05T21:33:03;97103.78;;;1.36;100.00
34185;BME280;20454;48.100;11.776;2023-02-05T21:35:29;97093.72;;;1.30;100.00
34185;BME280;20454;48.100;11.776;2023-02-05T21:37:54;97092.84;;;1.30;100.00
34185;BME280;20454;48.100;11.776;2023-02-05T21:40:20;97110.16;;;1.30;100.00
34185;BME280;20454;48.100;11.776;2023-02-05T21:42:46;97114.78;;;1.30;100.00
34185;BME280;20454;48.100;11.776;2023-02-05T21:45:11;97111.66;;;1.26;100.00
34185;BME280;20454;48.100;11.776;2023-02-05T21:47:37;97114.00;;;1.23;100.00
34185;BME280;20454;48.100;11.776;2023-02-05T21:50:03;97107.72;;;1.22;100.00
34185;BME280;20454;48.100;11.776;2023-02-05T21:52:29;97117.59;;;1.23;100.00
34185;BME280;20454;48.100;11.776;2023-02-05T21:54:55;97111.50;;;1.21;100.00
34185;BME280;20454;48.100;11.776;2023-02-05T21:57:20;97117.22;;;1.20;100.00
34185;BME280;20454;48.100;11.776;2023-02-05T21:59:47;97122.09;;;1.18;100.00
34185;BME280;20454;48.100;11.776;2023-02-05T22:02:13;97116.66;;;1.11;100.00
34185;BME280;20454;48.100;11.776;2023-02-05T22:04:39;97130.34;;;1.11;100.00
34185;BME280;20454;48.100;11.776;2023-02-05T22:07:05;97132.47;;;1.09;100.00
34185;BME280;20454;48.100;11.776;2023-02-05T22:09:31;97127.28;;;1.01;100.00
34185;BME280;20454;48.100;11.776;2023-02-05T22:11:56;97130.16;;;1.06;100.00
34185;BME280;20454;48.100;11.776;2023-02-05T22:14:31;97135.66;;;1.06;100.00
34185;BME280;20454;48.100;11.776;2023-02-05T22:16:58;97144.53;;;1.02;100.00
34185;BME280;20454;48.100;11.776;2023-02-05T22:19:25;97148.13;;;1.02;100.00
34185;BME280;20454;48.100;11.776;2023-02-05T22:21:51;97148.56;;;0.99;100.00
34185;BME280;20454;48.100;11.776;2023-02-05T22:24:18;97139.13;;;0.95;100.00
34185;BME280;20454;48.100;11.776;2023-02-05T22:26:45;97133.88;;;0.94;100.00
34185;BME280;20454;48.100;11.776;2023-02-05T22:29:13;97136.81;;;0.92;100.00
34185;BME280;20454;48.100;11.776;2023-02-05T22:31:39;97138.34;;;0.88;100.00
34185;BME280;20454;48.100;11.776;2023-02-05T22:34:05;97143.41;;;0.85;100.00
34185;BME280;20454;48.100;11.776;2023-02-05T22:36:33;97140.03;;;0.83;100.00
34185;BME280;20454;48.100;11.776;2023-02-05T22:38:59;97138.81;;;0.79;100.00
34185;BME280;20454;48.100;11.776;2023-02-05T22:41:27;97146.03;;;0.73;100.00
34185;BME280;20454;48.100;11.776;2023-02-05T22:43:54;97152.38;;;0.67;100.00
34185;BME280;20454;48.100;11.776;2023-02-05T22:46:21;97153.66;;;0.65;100.00
34185;BME280;20454;48.100;11.776;2023-02-05T22:48:48;97151.19;;;0.57;100.00
34185;BME280;20454;48.100;11.776;2023-02-05T22:51:22;97159.41;;;0.50;100.00
34185;BME280;20454;48.100;11.776;2023-02-05T22:53:48;97153.78;;;0.45;100.00
34185;BME280;20454;48.100;11.776;2023-02-05T22:56:15;97154.22;;;0.42;100.00
34185;BME280;20454;48.100;11.776;2023-02-05T22:58:43;97148.78;;;0.36;100.00
34185;BME280;20454;48.100;11.776;2023-02-05T23:01:31;97138.09;;;0.28;100.00
34185;BME280;20454;48.100;11.776;2023-02-05T23:04:01;97144.19;;;0.23;100.00
34185;BME280;20454;48.100;11.776;2023-02-05T23:06:29;97141.91;;;0.20;100.00
34185;BME280;20454;48.100;11.776;2023-02-05T23:09:02;97146.78;;;0.12;100.00
34185;BME280;20454;48.100;11.776;2023-02-05T23:11:29;97149.56;;;0.05;100.00
34185;BME280;20454;48.100;11.776;2023-02-05T23:13:57;97154.00;;;0.00;100.00
34185;BME280;20454;48.100;11.776;2023-02-05T23:16:25;97162.63;;;-0.03;100.00
34185;BME280;20454;48.100;11.776;2023-02-05T23:18:56;97160.75;;;-0.09;100.00
34185;BME280;20454;48.100;11.776;2023-02-05T23:21:23;97155.94;;;-0.13;100.00
34185;BME280;20454;48.100;11.776;2023-02-05T23:23:49;97154.25;;;-0.14;100.00
34185;BME280;20454;48.100;11.776;2023-02-05T23:26:18;97148.38;;;-0.24;100.00
34185;BME280;20454;48.100;11.776;2023-02-05T23:28:45;97156.16;;;-0.28;100.00
34185;BME280;20454;48.100;11.776;2023-02-05T23:31:11;97161.88;;;-0.29;100.00
34185;BME280;20454;48.100;11.776;2023-02-05T23:33:37;97166.06;;;-0.33;100.00
34185;BME280;20454;48.100;11.776;2023-02-05T23:36:04;97162.94;;;-0.37;100.00
34185;BME280;20454;48.100;11.776;2023-02-05T23:38:30;97167.38;;;-0.42;100.00
34185;BME280;20454;48.100;11.776;2023-02-05T23:40:56;97177.44;;;-0.43;100.00
34185;BME280;20454;48.100;11.776;2023-02-05T23:43:22;97187.16;;;-0.47;100.00
34185;BME280;20454;48.100;11.776;2023-02-05T23:45:48;97177.88;;;-0.52;100.00
34185;BME280;20454;48.100;11.776;2023-02-05T23:48:14;97180.00;;;-0.54;100.00
34185;BME280;20454;48.100;11.776;2023-02-05T23:50:40;97182.31;;;-0.58;100.00
34185;BME280;20454;48.100;11.776;2023-02-05T23:53:09;97200.19;;;-0.55;100.00
34185;BME280;20454;48.100;11.776;2023-02-05T23:55:39;97190.94;;;-0.61;100.00
34185;BME280;20454;48.100;11.776;2023-02-05T23:58:05;97197.88;;;-0.65;100.00
